»·PEaware :: DAL2005 KGEG-KSLC

DAL2005 :: KGEG-KSLC

FLIGHT INFORMATION

Flight Status: Arrived
Operator:
Delta Air Lines
More flights by this operator :: More flights under this callsign
Pilot: Anonymous 12234 (12234)
Aircraft: BOEING 727-200
(B722)
More flights by this aircraft type
Origin: KGEG Spokane Intl
United States
Destination: KSLC Salt Lake City Intl
United States
More flights between these airports :: More routes between these airports
Route: +GEG4 PUW DNJ J20 PIH BEARR5
File this flight plan on PilotEdge
Remarks:
Altitude:
(Current/Filed)
31,000ft
Speed:
(Current/Filed)
472kts
Departed: 12-Jan-19 04:06 PM
Arrived: 12-Jan-19 05:34 PM
Distance/Time
Traveled:
474nm/1:28
Distance/Time
To Go:
Arrived

Flight Plot

Page will automatically refresh every two minutes.

Flight plan parsing failed; only flown route is shown


Map Options




Map Legend


Flown Route
Filed Route
Departure Airport
Arrival Airport
Navaid (VOR, NDB)
Fix

Horizontal Profiles

Position Reports

Time Latitude Longitude Heading Altitude Ground
Speed
12-Jan-19 15:39 47.624414 -117.535349 292 2362ft 0kts
12-Jan-19 15:40 47.624414 -117.535349 292 2362ft 0kts
12-Jan-19 15:41 47.624414 -117.535349 292 2362ft 0kts
12-Jan-19 15:42 47.624414 -117.535349 292 2362ft 0kts
12-Jan-19 15:43 47.624414 -117.535349 292 2362ft 0kts
12-Jan-19 15:44 47.624414 -117.535349 292 2362ft 0kts
12-Jan-19 15:45 47.624414 -117.535349 292 2362ft 0kts
12-Jan-19 15:46 47.624414 -117.535349 292 2362ft 0kts
12-Jan-19 15:47 47.624414 -117.535349 292 2362ft 0kts
12-Jan-19 15:48 47.624414 -117.535349 292 2362ft 0kts
12-Jan-19 15:49 47.624414 -117.535349 292 2362ft 0kts
12-Jan-19 15:50 47.624414 -117.535349 292 2362ft 0kts
12-Jan-19 15:51 47.624414 -117.535349 292 2362ft 0kts
12-Jan-19 15:52 47.624379 -117.535224 292 2362ft 2kts
12-Jan-19 15:53 47.624192 -117.534465 261 2361ft 2kts
12-Jan-19 15:54 47.624310 -117.534148 225 2361ft 0kts
12-Jan-19 15:55 47.624310 -117.534148 225 2361ft 0kts
12-Jan-19 15:56 47.624310 -117.534148 225 2361ft 0kts
12-Jan-19 15:57 47.624310 -117.534148 225 2361ft 0kts
12-Jan-19 15:58 47.624310 -117.534148 225 2361ft 0kts
12-Jan-19 15:59 47.623753 -117.535003 225 2362ft 3kts
12-Jan-19 16:00 47.623105 -117.534737 65 2363ft 11kts
12-Jan-19 16:01 47.626721 -117.529070 45 2355ft 21kts
12-Jan-19 16:02 47.631400 -117.522054 45 2335ft 16kts
12-Jan-19 16:03 47.632244 -117.520778 46 2333ft 0kts
12-Jan-19 16:04 47.630922 -117.518778 213 2331ft 5kts
12-Jan-19 16:05 47.616223 -117.540581 225 2534ft 158kts
12-Jan-19 16:06 47.583677 -117.587200 224 3666ft 176kts
12-Jan-19 16:07 47.540927 -117.646910 222 4534ft 260kts
12-Jan-19 16:08 47.478527 -117.697303 173 7468ft 268kts
12-Jan-19 16:09 47.405328 -117.681881 165 10354ft 270kts
12-Jan-19 16:10 47.333002 -117.637309 158 12326ft 300kts
12-Jan-19 16:11 47.254101 -117.586352 158 14505ft 315kts
12-Jan-19 16:12 47.172372 -117.534384 158 16542ft 325kts
12-Jan-19 16:13 47.088204 -117.481341 159 18348ft 334kts
12-Jan-19 16:14 47.001503 -117.426995 159 19935ft 343kts
12-Jan-19 16:15 46.914038 -117.372325 159 21330ft 351kts
12-Jan-19 16:16 46.823658 -117.316348 159 22594ft 359kts
12-Jan-19 16:17 46.731374 -117.257972 154 23732ft 367kts
12-Jan-19 16:18 46.640331 -117.188169 155 24745ft 374kts
12-Jan-19 16:19 46.542357 -117.140852 168 25595ft 376kts
12-Jan-19 16:20 46.442405 -117.093674 161 26508ft 379kts
12-Jan-19 16:21 46.342920 -117.039200 160 27220ft 386kts
12-Jan-19 16:22 46.242096 -116.983653 160 27896ft 391kts
12-Jan-19 16:23 46.140001 -116.927567 160 28508ft 395kts
12-Jan-19 16:24 46.036846 -116.871102 159 29051ft 400kts
12-Jan-19 16:25 45.933265 -116.814667 158 29754ft 399kts
12-Jan-19 16:26 45.830094 -116.759083 159 30348ft 398kts
12-Jan-19 16:27 45.727684 -116.703914 158 30895ft 398kts
12-Jan-19 16:28 45.623456 -116.652393 161 31221ft 401kts
12-Jan-19 16:29 45.516920 -116.597353 158 31227ft 413kts
12-Jan-19 16:30 45.407929 -116.538731 158 31231ft 424kts
12-Jan-19 16:31 45.295946 -116.479890 158 31230ft 435kts
12-Jan-19 16:32 45.181314 -116.420125 158 31230ft 445kts
12-Jan-19 16:33 45.063756 -116.359265 158 31221ft 450kts
12-Jan-19 16:34 44.946573 -116.298197 159 31211ft 448kts
12-Jan-19 16:35 44.830810 -116.239124 159 31211ft 449kts
12-Jan-19 16:36 44.725256 -116.150871 132 31200ft 444kts
12-Jan-19 16:37 44.666025 -116.001277 126 31246ft 439kts
12-Jan-19 16:38 44.594924 -115.861964 124 31256ft 440kts
12-Jan-19 16:39 44.524007 -115.721343 124 31256ft 444kts
12-Jan-19 16:40 44.452310 -115.579657 124 31258ft 447kts
12-Jan-19 16:41 44.379979 -115.437409 124 31270ft 449kts
12-Jan-19 16:42 44.307300 -115.295359 124 31284ft 451kts
12-Jan-19 16:43 44.233719 -115.152547 124 31286ft 454kts
12-Jan-19 16:44 44.161482 -115.012567 124 31291ft 456kts
12-Jan-19 16:45 44.087221 -114.869340 124 31291ft 455kts
12-Jan-19 16:46 44.013284 -114.727544 123 31291ft 452kts
12-Jan-19 16:47 43.939878 -114.587322 123 31291ft 448kts
12-Jan-19 16:48 43.866984 -114.450061 123 31288ft 445kts
12-Jan-19 16:49 43.793645 -114.312735 124 31286ft 442kts
12-Jan-19 16:50 43.720592 -114.176201 124 31275ft 440kts
12-Jan-19 16:51 43.648350 -114.040863 123 31272ft 438kts
12-Jan-19 16:53 43.574481 -113.906757 124 31274ft 438kts
12-Jan-19 16:54 43.500703 -113.773958 124 31273ft 437kts
12-Jan-19 16:55 43.427257 -113.641106 123 31273ft 437kts
12-Jan-19 16:56 43.353521 -113.508272 123 31272ft 437kts
12-Jan-19 16:57 43.279382 -113.375308 123 31272ft 440kts
12-Jan-19 16:58 43.204814 -113.241556 123 31278ft 442kts
12-Jan-19 16:59 43.129494 -113.107387 123 31274ft 445kts
12-Jan-19 17:00 43.053829 -112.973355 123 31275ft 447kts
12-Jan-19 17:01 42.977325 -112.838527 123 31294ft 448kts
12-Jan-19 17:02 42.900620 -112.704070 123 31303ft 449kts
12-Jan-19 17:03 42.800355 -112.606919 169 31308ft 476kts
12-Jan-19 17:04 42.669746 -112.590850 160 31307ft 467kts
12-Jan-19 17:05 42.543367 -112.549965 160 31298ft 468kts
12-Jan-19 17:06 42.417055 -112.513508 162 29560ft 466kts
12-Jan-19 17:07 42.292404 -112.476931 161 27422ft 449kts
12-Jan-19 17:08 42.170746 -112.451656 169 25224ft 441kts
12-Jan-19 17:09 42.049597 -112.459819 175 23077ft 431kts
12-Jan-19 17:10 41.931395 -112.463796 176 21100ft 419kts
12-Jan-19 17:11 41.821417 -112.468728 177 19175ft 411kts
12-Jan-19 17:12 41.708551 -112.473899 177 17335ft 398kts
12-Jan-19 17:13 41.603951 -112.479447 178 16988ft 344kts
12-Jan-19 17:13 41.530222 -112.482022 159 16987ft 296kts
12-Jan-19 17:14 41.456442 -112.429963 145 15835ft 322kts
12-Jan-19 17:15 41.376984 -112.370786 146 13953ft 323kts
12-Jan-19 17:17 41.287597 -112.304784 147 14007ft 306kts
12-Jan-19 17:18 41.212507 -112.249079 146 14045ft 306kts
12-Jan-19 17:18 41.151101 -112.203532 147 12906ft 303kts
12-Jan-19 17:20 41.065533 -112.141257 158 11388ft 296kts
12-Jan-19 17:21 40.986230 -112.126674 171 11010ft 281kts
12-Jan-19 17:21 40.920902 -112.116094 171 11010ft 283kts
12-Jan-19 17:22 40.843997 -112.103755 171 10913ft 287kts
12-Jan-19 17:23 40.766576 -112.090939 171 10007ft 272kts
12-Jan-19 17:24 40.692417 -112.077647 171 9038ft 266kts
12-Jan-19 17:25 40.621814 -112.064297 171 8612ft 254kts
12-Jan-19 17:26 40.562158 -112.028899 106 7566ft 249kts
12-Jan-19 17:27 40.574812 -111.950929 25 7011ft 222kts
12-Jan-19 17:28 40.628144 -111.956744 357 7004ft 183kts
12-Jan-19 17:29 40.675210 -111.961632 355 6217ft 144kts
12-Jan-19 17:30 40.714769 -111.966153 352 5452ft 144kts
12-Jan-19 17:31 40.756421 -111.970900 353 4675ft 155kts
12-Jan-19 17:32 40.791801 -111.975126 354 4239ft 68kts
12-Jan-19 17:33 40.796676 -111.977370 232 4239ft 7kts
12-Jan-19 17:34 40.792916 -111.977439 174 4239ft 15kts
12-Jan-19 17:35 40.790297 -111.979064 239 4239ft 10kts
12-Jan-19 17:36 40.789146 -111.980700 228 4239ft 0kts
12-Jan-19 17:37 40.789132 -111.980720 228 4239ft 0kts
12-Jan-19 17:38 40.789132 -111.980720 228 4239ft 0kts
12-Jan-19 17:39 40.789132 -111.980720 228 4239ft 0kts
12-Jan-19 17:40 40.789132 -111.980720 228 4239ft 0kts
12-Jan-19 17:41 40.789132 -111.980720 228 4239ft 0kts
12-Jan-19 17:42 40.789132 -111.980720 228 4239ft 0kts
12-Jan-19 17:43 40.789132 -111.980720 228 4239ft 0kts
12-Jan-19 17:44 40.789132 -111.980720 228 4239ft 0kts
12-Jan-19 17:45 40.789132 -111.980720 228 4239ft 0kts
12-Jan-19 17:46 40.789132 -111.980720 228 4239ft 0kts
12-Jan-19 17:47 40.789132 -111.980720 228 4239ft 0kts
12-Jan-19 17:48 40.789132 -111.980720 228 4239ft 0kts

Navigation Log

Ident Type
Flight plan parsing failed, navigation log unavailable